Time;durP1;ratioP1;P1;durP2;ratioP2;P2;SDS_P1;SDS_P2;PMS_P1;PMS_P2;Temp;Humidity;BMP_temperature;BMP_pressure;BME280_temperature;BME280_humidity;BME280_pressure;Samples;Min_cycle;Max_cycle;Signal;HPM_P1;HPM_P2
2022/09/15 00:02:05;;;;;;;4.70;1.98;;;;;;;17.05;100.00;95923.56;5039874;28;20037;-67
2022/09/15 00:04:30;;;;;;;3.95;2.13;;;;;;;17.08;100.00;95917.94;5033932;28;20108;-66
2022/09/15 00:06:56;;;;;;;4.00;1.83;;;;;;;17.11;100.00;95914.34;5030714;28;20030;-67
2022/09/15 00:09:21;;;;;;;2.35;1.40;;;;;;;17.11;100.00;95928.16;5041911;28;20030;-67
2022/09/15 00:11:47;;;;;;;3.85;1.65;;;;;;;17.13;100.00;95913.91;5033637;28;20536;-67
2022/09/15 00:14:12;;;;;;;3.55;1.95;;;;;;;17.09;100.00;95913.22;5016059;28;20036;-67
2022/09/15 00:16:38;;;;;;;10.07;1.90;;;;;;;17.13;100.00;95909.16;5033510;28;20128;-66
2022/09/15 00:19:05;;;;;;;3.83;1.60;;;;;;;17.13;100.00;95906.38;5014886;28;20471;-67
2022/09/15 00:21:33;;;;;;;4.07;1.52;;;;;;;17.12;100.00;95907.56;5042733;28;20059;-67
2022/09/15 00:24:00;;;;;;;4.85;1.75;;;;;;;17.08;100.00;95906.09;5053799;28;20041;-69
2022/09/15 00:26:28;;;;;;;5.78;1.60;;;;;;;17.09;100.00;95905.69;5039022;28;20033;-67
2022/09/15 00:28:55;;;;;;;6.05;1.73;;;;;;;17.12;100.00;95901.28;5043319;28;20487;-67
2022/09/15 00:31:23;;;;;;;4.40;1.70;;;;;;;17.16;100.00;95905.53;5035161;28;20037;-68
2022/09/15 00:33:52;;;;;;;7.35;1.63;;;;;;;17.16;100.00;95902.75;5033893;28;20037;-68
2022/09/15 00:36:19;;;;;;;2.80;1.30;;;;;;;17.11;100.00;95899.72;5042369;28;20032;-67
2022/09/15 00:38:45;;;;;;;4.18;1.45;;;;;;;17.08;100.00;95903.34;5034564;28;20072;-69
2022/09/15 00:41:14;;;;;;;6.60;1.30;;;;;;;17.07;100.00;95899.00;5016143;28;20028;-69
2022/09/15 00:43:44;;;;;;;5.80;1.52;;;;;;;17.06;100.00;95901.00;5034107;28;20029;-66
2022/09/15 00:46:11;;;;;;;7.85;1.60;;;;;;;17.04;100.00;95908.94;5033988;28;20498;-67
2022/09/15 00:48:40;;;;;;;3.75;1.40;;;;;;;17.02;100.00;95896.78;5034806;28;20045;-68
2022/09/15 00:51:08;;;;;;;4.05;1.77;;;;;;;17.08;100.00;95895.81;5020295;28;20044;-69
2022/09/15 00:53:35;;;;;;;3.30;1.65;;;;;;;17.14;100.00;95894.13;5042099;28;20115;-68
2022/09/15 00:56:02;;;;;;;4.13;1.30;;;;;;;17.14;100.00;95894.13;5035435;28;20033;-67
2022/09/15 00:58:54;;;;;;;7.60;1.52;;;;;;;17.23;100.00;95892.72;5053623;28;20076;-66
2022/09/15 01:01:22;;;;;;;3.97;1.45;;;;;;;17.12;100.00;95887.44;5040549;28;20029;-66
2022/09/15 01:03:47;;;;;;;7.93;1.45;;;;;;;17.17;100.00;95890.47;5040756;28;20375;-66
2022/09/15 01:06:21;;;;;;;4.28;1.75;;;;;;;17.12;100.00;95890.19;5032961;28;20059;-68
2022/09/15 01:08:59;;;;;;;5.78;1.15;;;;;;;17.02;100.00;95880.16;5033753;28;20124;-67
2022/09/15 01:11:24;;;;;;;2.33;1.17;;;;;;;16.96;100.00;95885.41;5033967;28;20116;-67
2022/09/15 01:13:50;;;;;;;2.92;1.35;;;;;;;17.00;100.00;95869.53;5033479;28;20068;-67
2022/09/15 01:16:25;;;;;;;4.00;1.52;;;;;;;16.97;100.00;95873.16;5031837;28;20037;-68
2022/09/15 01:18:56;;;;;;;6.40;1.58;;;;;;;16.88;100.00;95873.72;5024579;28;20029;-68
2022/09/15 01:21:49;;;;;;;3.50;1.30;;;;;;;16.85;100.00;95877.34;5032429;28;20061;-67
2022/09/15 01:24:59;;;;;;;3.88;1.27;;;;;;;16.89;100.00;95880.03;5003363;28;20119;-67
2022/09/15 01:27:42;;;;;;;3.95;1.30;;;;;;;16.98;100.00;95888.56;5012278;28;20580;-67
2022/09/15 01:30:10;;;;;;;5.82;1.95;;;;;;;16.98;100.00;95881.03;5012420;28;20165;-67
2022/09/15 01:33:04;;;;;;;3.50;1.63;;;;;;;16.98;100.00;95883.03;5037643;28;20236;-68
2022/09/15 01:35:36;;;;;;;2.80;1.23;;;;;;;16.98;100.00;95877.50;5040315;28;20388;-69
2022/09/15 01:38:04;;;;;;;6.47;1.30;;;;;;;16.95;100.00;95878.34;5030521;28;20033;-67
2022/09/15 01:40:40;;;;;;;5.53;1.40;;;;;;;16.88;100.00;95872.97;5031283;28;20029;-68
2022/09/15 01:43:08;;;;;;;4.63;1.30;;;;;;;16.88;100.00;95867.44;5014002;28;20026;-68
2022/09/15 01:45:37;;;;;;;5.05;1.35;;;;;;;16.85;100.00;95871.03;5032189;28;20478;-68
2022/09/15 01:48:06;;;;;;;3.63;1.40;;;;;;;16.79;100.00;95874.28;5042747;28;20029;-68
2022/09/15 01:50:36;;;;;;;6.67;1.50;;;;;;;16.96;100.00;95866.03;5031716;28;20419;-68
2022/09/15 01:53:07;;;;;;;4.88;1.20;;;;;;;16.95;100.00;95867.28;5013813;28;20042;-66
2022/09/15 01:55:40;;;;;;;3.22;1.50;;;;;;;16.89;100.00;95858.72;5031729;28;20029;-68
2022/09/15 01:58:07;;;;;;;2.63;1.10;;;;;;;16.91;100.00;95866.56;5032033;28;20071;-68
2022/09/15 02:00:38;;;;;;;4.82;1.50;;;;;;;16.94;100.00;95860.97;5032217;28;20061;-66
2022/09/15 02:03:19;;;;;;;4.03;1.52;;;;;;;17.04;100.00;95861.94;5037549;28;20029;-68
2022/09/15 02:06:01;;;;;;;4.63;1.17;;;;;;;17.00;100.00;95859.25;5030961;28;20037;-68
2022/09/15 02:08:46;;;;;;;6.47;1.45;;;;;;;17.00;100.00;95850.16;5038859;28;20037;-68
2022/09/15 02:11:19;;;;;;;3.65;1.40;;;;;;;16.92;100.00;95852.28;5013662;28;20060;-67
2022/09/15 02:13:58;;;;;;;4.10;1.65;;;;;;;16.82;100.00;95848.53;5030691;28;20617;-68
2022/09/15 02:16:28;;;;;;;5.43;1.42;;;;;;;16.75;100.00;95853.44;5039293;28;20037;-68
2022/09/15 02:19:09;;;;;;;5.25;1.60;;;;;;;16.59;100.00;95854.19;5051469;28;20044;-68
2022/09/15 02:21:46;;;;;;;2.75;1.13;;;;;;;16.55;100.00;95847.97;5039780;28;20040;-68
2022/09/15 02:24:18;;;;;;;4.18;1.35;;;;;;;16.49;100.00;95841.34;5013317;28;20032;-68
2022/09/15 02:26:47;;;;;;;5.07;1.17;;;;;;;16.36;100.00;95853.03;5013431;28;20029;-68
2022/09/15 02:29:18;;;;;;;6.57;1.73;;;;;;;16.33;100.00;95853.91;5030019;28;20033;-68
2022/09/15 02:31:45;;;;;;;4.05;1.10;;;;;;;16.38;100.00;95847.88;5039139;28;20029;-68
2022/09/15 02:34:19;;;;;;;1.90;0.93;;;;;;;16.52;100.00;95838.50;5032246;28;20037;-67
2022/09/15 02:36:47;;;;;;;3.38;1.00;;;;;;;16.48;100.00;95848.09;5042399;28;20109;-68
2022/09/15 02:39:16;;;;;;;2.63;1.10;;;;;;;16.47;100.00;95850.06;5032903;28;20033;-67
2022/09/15 02:41:42;;;;;;;5.38;1.00;;;;;;;16.42;100.00;95848.59;5034174;28;20087;-68
2022/09/15 02:44:08;;;;;;;2.97;0.95;;;;;;;16.40;100.00;95837.19;5038271;28;20037;-68
2022/09/15 02:46:34;;;;;;;3.30;1.00;;;;;;;16.43;100.00;95847.38;5033626;28;20040;-68
2022/09/15 02:49:00;;;;;;;4.57;1.02;;;;;;;16.47;100.00;95832.72;5031135;28;20108;-68
2022/09/15 02:51:25;;;;;;;1.98;0.82;;;;;;;16.48;100.00;95835.06;5013536;28;20112;-67
2022/09/15 02:53:52;;;;;;;2.20;0.80;;;;;;;16.36;100.00;95839.22;5031219;28;20040;-68
2022/09/15 02:56:18;;;;;;;2.00;1.00;;;;;;;16.38;100.00;95834.06;5030292;28;20029;-68
2022/09/15 02:58:43;;;;;;;3.83;1.38;;;;;;;16.42;100.00;95837.53;5033377;28;20048;-68
2022/09/15 03:01:13;;;;;;;2.00;0.90;;;;;;;16.39;100.00;95843.13;5032887;28;20039;-68
2022/09/15 03:03:39;;;;;;;1.70;0.88;;;;;;;16.36;100.00;95846.75;5050698;28;20120;-67
2022/09/15 03:06:17;;;;;;;2.38;1.00;;;;;;;16.35;100.00;95851.50;5051024;28;20116;-68
2022/09/15 03:08:53;;;;;;;2.67;0.82;;;;;;;16.33;100.00;95850.34;5052530;28;20037;-68
2022/09/15 03:11:21;;;;;;;6.30;1.40;;;;;;;16.31;100.00;95845.25;5043256;28;20098;-68
2022/09/15 03:13:47;;;;;;;3.85;1.38;;;;;;;16.25;100.00;95844.19;5046554;28;20033;-68
2022/09/15 03:16:15;;;;;;;3.58;1.10;;;;;;;16.27;100.00;95849.31;5041247;28;20034;-68
2022/09/15 03:18:41;;;;;;;3.10;0.98;;;;;;;16.29;100.00;95838.59;5013566;28;20045;-68
2022/09/15 03:21:10;;;;;;;3.88;1.08;;;;;;;16.26;100.00;95843.00;5029337;28;20076;-68
2022/09/15 03:23:36;;;;;;;2.03;1.00;;;;;;;16.27;100.00;95844.53;5038780;28;20163;-67
2022/09/15 03:26:03;;;;;;;2.83;0.93;;;;;;;16.36;100.00;95842.00;5030642;28;20116;-68
2022/09/15 03:28:28;;;;;;;1.83;0.88;;;;;;;16.53;100.00;95851.13;5030567;28;20376;-67
2022/09/15 03:30:54;;;;;;;2.70;0.70;;;;;;;16.44;100.00;95853.69;5038026;28;20083;-67
2022/09/15 03:33:21;;;;;;;5.10;1.00;;;;;;;16.32;100.00;95852.34;5012920;28;20397;-67
2022/09/15 03:35:47;;;;;;;2.28;0.98;;;;;;;16.17;100.00;95846.31;5030556;28;20029;-67
2022/09/15 03:38:13;;;;;;;2.03;0.85;;;;;;;16.11;100.00;95856.28;5030717;28;20057;-66
2022/09/15 03:40:41;;;;;;;1.70;0.90;;;;;;;16.03;100.00;95863.16;5031888;28;20080;-66
2022/09/15 03:43:10;;;;;;;5.00;2.58;;;;;;;16.10;100.00;95860.28;5045773;28;20067;-66
2022/09/15 03:45:37;;;;;;;3.20;1.77;;;;;;;16.08;100.00;95859.91;5038364;28;20101;-66
2022/09/15 03:48:06;;;;;;;4.35;1.48;;;;;;;16.07;100.00;95860.34;5032650;28;20037;-66
2022/09/15 03:50:34;;;;;;;8.27;1.13;;;;;;;16.09;100.00;95864.22;5017457;28;20087;-66
2022/09/15 03:53:00;;;;;;;4.53;0.82;;;;;;;16.21;100.00;95873.88;5035100;28;20041;-66
2022/09/15 03:55:27;;;;;;;6.35;1.05;;;;;;;16.31;100.00;95864.59;5032874;28;20179;-66
2022/09/15 03:57:53;;;;;;;2.55;0.88;;;;;;;16.37;100.00;95870.44;5042320;28;20143;-67
2022/09/15 04:00:18;;;;;;;4.97;1.30;;;;;;;16.42;100.00;95867.13;5034001;28;20521;-68
2022/09/15 04:02:44;;;;;;;5.65;0.88;;;;;;;16.34;100.00;95862.97;5033975;28;20382;-67
2022/09/15 04:05:12;;;;;;;3.72;0.88;;;;;;;16.28;100.00;95859.13;5016274;28;20029;-67
2022/09/15 04:07:38;;;;;;;4.97;1.23;;;;;;;16.23;100.00;95844.63;5033632;28;20163;-67
2022/09/15 04:10:03;;;;;;;2.75;0.82;;;;;;;16.22;100.00;95847.78;5032640;28;20127;-66
2022/09/15 04:12:31;;;;;;;5.53;0.77;;;;;;;16.22;100.00;95842.28;5041650;28;20076;-66
2022/09/15 04:14:57;;;;;;;2.28;0.80;;;;;;;16.17;100.00;95851.84;5032883;28;20144;-66
2022/09/15 04:17:23;;;;;;;6.78;0.82;;;;;;;16.12;100.00;95846.81;5041936;28;20104;-66
2022/09/15 04:19:48;;;;;;;3.10;1.50;;;;;;;16.10;100.00;95843.69;5028875;28;20038;-66
2022/09/15 04:22:13;;;;;;;2.22;0.60;;;;;;;15.99;100.00;95843.91;5036820;28;20033;-66
2022/09/15 04:24:39;;;;;;;2.30;1.10;;;;;;;16.08;100.00;95845.31;5033600;28;20026;-66
2022/09/15 04:27:04;;;;;;;2.47;1.10;;;;;;;16.13;100.00;95831.78;5032805;28;20030;-66
2022/09/15 04:29:30;;;;;;;3.85;1.40;;;;;;;16.19;100.00;95838.38;5044299;28;20048;-67
2022/09/15 04:31:55;;;;;;;3.33;1.30;;;;;;;16.12;100.00;95843.28;5053579;28;20063;-66
2022/09/15 04:34:20;;;;;;;2.83;0.80;;;;;;;16.16;100.00;95839.22;5053347;28;20033;-67
2022/09/15 04:36:47;;;;;;;2.60;1.00;;;;;;;16.19;100.00;95838.38;5053009;28;20047;-66
2022/09/15 04:39:12;;;;;;;1.90;0.90;;;;;;;16.17;100.00;95835.28;5053021;28;20029;-67
2022/09/15 04:41:38;;;;;;;4.18;0.70;;;;;;;16.19;100.00;95829.31;5045893;28;20057;-67
2022/09/15 04:44:03;;;;;;;4.57;1.02;;;;;;;16.14;100.00;95821.53;5046319;28;20443;-66
2022/09/15 04:46:29;;;;;;;3.28;1.13;;;;;;;16.10;100.00;95827.13;5047328;28;20053;-67
2022/09/15 04:48:55;;;;;;;3.42;1.00;;;;;;;16.02;100.00;95834.75;5033705;28;20041;-66
2022/09/15 04:51:21;;;;;;;1.88;0.70;;;;;;;15.99;100.00;95835.63;5032232;28;20037;-66
2022/09/15 04:53:48;;;;;;;2.97;0.80;;;;;;;15.88;100.00;95831.47;5041176;28;20034;-66
2022/09/15 04:56:17;;;;;;;3.35;0.80;;;;;;;15.89;100.00;95830.28;5014396;28;20033;-67
2022/09/15 04:58:57;;;;;;;3.90;1.00;;;;;;;15.97;100.00;95834.47;5039631;28;20112;-68
2022/09/15 05:01:25;;;;;;;3.22;0.80;;;;;;;15.98;100.00;95827.75;5037538;28;20105;-68
2022/09/15 05:03:51;;;;;;;2.85;0.85;;;;;;;15.94;100.00;95829.81;5044781;28;20029;-68
2022/09/15 05:06:23;;;;;;;1.65;0.90;;;;;;;15.89;100.00;95833.81;5052317;28;20036;-67
2022/09/15 05:08:51;;;;;;;2.22;0.88;;;;;;;15.85;100.00;95836.66;5052647;28;20139;-68
2022/09/15 05:11:18;;;;;;;3.55;0.80;;;;;;;15.90;100.00;95834.59;5036195;28;20126;-68
2022/09/15 05:13:44;;;;;;;1.85;0.75;;;;;;;15.86;100.00;95834.66;5040692;28;20108;-68
2022/09/15 05:16:12;;;;;;;4.85;0.90;;;;;;;15.86;100.00;95843.75;5032251;28;20121;-67
2022/09/15 05:18:38;;;;;;;2.85;0.90;;;;;;;15.88;100.00;95837.78;5032463;28;20470;-68
2022/09/15 05:21:05;;;;;;;1.75;0.77;;;;;;;15.97;100.00;95837.22;5032330;28;20037;-68
2022/09/15 05:23:33;;;;;;;5.00;1.08;;;;;;;16.09;100.00;95824.78;5032250;28;20371;-68
2022/09/15 05:26:00;;;;;;;3.15;0.93;;;;;;;16.05;100.00;95835.91;5035722;28;20134;-68
2022/09/15 05:28:26;;;;;;;2.65;1.35;;;;;;;16.16;100.00;95825.41;5035841;28;20487;-68
2022/09/15 05:30:53;;;;;;;5.15;1.90;;;;;;;16.21;100.00;95826.91;5015050;28;20390;-68
2022/09/15 05:33:20;;;;;;;5.18;1.10;;;;;;;16.48;100.00;95837.03;5040364;28;20033;-68
2022/09/15 05:35:57;;;;;;;5.57;0.80;;;;;;;16.48;100.00;95837.03;5032560;28;20029;-68
2022/09/15 05:38:24;;;;;;;4.22;0.98;;;;;;;16.63;100.00;95830.00;5032401;28;20038;-68
2022/09/15 05:40:49;;;;;;;1.30;0.75;;;;;;;16.55;100.00;95831.38;5036221;28;20084;-67
2022/09/15 05:43:16;;;;;;;0.98;0.60;;;;;;;16.50;100.00;95823.56;5052569;28;20517;-68
2022/09/15 05:45:42;;;;;;;1.60;0.80;;;;;;;16.57;100.00;95826.19;5041905;28;20490;-68
2022/09/15 05:48:11;;;;;;;4.78;1.17;;;;;;;16.61;100.00;95835.19;5037888;28;20044;-68
2022/09/15 05:50:37;;;;;;;3.65;0.70;;;;;;;16.74;100.00;95835.28;5034446;28;20182;-66
2022/09/15 05:53:04;;;;;;;1.83;0.70;;;;;;;16.86;100.00;95831.91;5031107;28;20037;-66
2022/09/15 05:55:29;;;;;;;1.58;0.80;;;;;;;17.14;100.00;95832.44;5040672;28;20071;-67
2022/09/15 05:57:55;;;;;;;1.35;0.68;;;;;;;17.48;100.00;95845.84;5031457;28;20041;-66
2022/09/15 06:00:21;;;;;;;4.03;0.73;;;;;;;18.00;100.00;95844.19;5031310;28;20594;-65
2022/09/15 06:02:46;;;;;;;2.22;0.80;;;;;;;17.99;100.00;95841.84;5040624;28;20039;-66
2022/09/15 06:05:12;;;;;;;1.48;0.50;;;;;;;17.99;100.00;95839.06;5031874;28;20087;-67
2022/09/15 06:07:38;;;;;;;2.63;0.77;;;;;;;17.75;100.00;95844.81;5031417;28;20502;-67
2022/09/15 06:10:03;;;;;;;3.35;1.35;;;;;;;17.65;100.00;95849.41;5031580;28;20040;-67
2022/09/15 06:12:29;;;;;;;2.60;0.70;;;;;;;17.55;100.00;95847.69;5030355;28;20152;-67
2022/09/15 06:14:55;;;;;;;3.30;1.52;;;;;;;17.63;100.00;95845.50;5039754;28;20032;-67
2022/09/15 06:17:22;;;;;;;6.75;0.93;;;;;;;17.81;100.00;95845.84;5031258;28;20084;-67
2022/09/15 06:19:47;;;;;;;8.50;1.08;;;;;;;17.70;100.00;95848.91;5030866;28;20163;-68
2022/09/15 06:22:13;;;;;;;1.75;0.70;;;;;;;17.54;100.00;95846.91;5039658;28;20049;-67
2022/09/15 06:24:38;;;;;;;2.28;0.93;;;;;;;17.37;100.00;95851.66;5031930;28;20041;-66
2022/09/15 06:27:04;;;;;;;4.72;0.90;;;;;;;17.37;100.00;95857.19;5031002;28;20040;-67
2022/09/15 06:29:30;;;;;;;2.65;0.80;;;;;;;17.37;100.00;95851.66;5045097;28;20079;-67
2022/09/15 06:32:01;;;;;;;4.35;0.68;;;;;;;17.50;100.00;95843.47;5054199;28;20060;-67
2022/09/15 06:34:31;;;;;;;1.13;0.60;;;;;;;17.34;100.00;95855.31;5042600;28;20031;-68
2022/09/15 06:36:57;;;;;;;3.42;0.70;;;;;;;17.51;100.00;95850.53;5049927;28;20040;-67
2022/09/15 06:39:23;;;;;;;2.13;0.77;;;;;;;17.63;100.00;95854.63;5034784;28;20498;-66
2022/09/15 06:41:48;;;;;;;1.58;0.90;;;;;;;17.51;100.00;95860.84;5034857;28;20040;-67
2022/09/15 06:44:14;;;;;;;2.58;0.75;;;;;;;17.33;100.00;95862.03;5051276;28;20032;-67
2022/09/15 06:46:39;;;;;;;8.55;1.00;;;;;;;17.43;100.00;95863.00;5050949;28;20449;-66
2022/09/15 06:49:04;;;;;;;4.78;1.02;;;;;;;17.49;100.00;95866.81;5050704;28;20048;-67
2022/09/15 06:51:34;;;;;;;6.03;1.90;;;;;;;17.48;100.00;95861.69;5050975;28;20132;-67
2022/09/15 06:54:03;;;;;;;4.25;0.95;;;;;;;17.54;100.00;95871.06;5051272;28;20072;-67
2022/09/15 06:56:29;;;;;;;2.20;0.70;;;;;;;17.63;100.00;95864.88;5049630;28;20397;-66
2022/09/15 06:58:55;;;;;;;2.75;0.70;;;;;;;18.00;100.00;95871.88;5051269;28;20111;-68
2022/09/15 07:01:20;;;;;;;3.17;0.90;;;;;;;18.46;100.00;95864.31;5050921;28;20080;-67
2022/09/15 07:03:46;;;;;;;2.88;0.85;;;;;;;19.07;100.00;95873.69;5055078;28;20091;-65
2022/09/15 07:06:11;;;;;;;6.28;0.98;;;;;;;19.33;100.00;95873.69;5067765;28;20033;-65
2022/09/15 07:08:38;;;;;;;4.90;1.15;;;;;;;19.59;100.00;95870.88;5039828;28;20038;-68
2022/09/15 07:11:04;;;;;;;5.68;1.13;;;;;;;19.53;100.00;95873.44;5016470;28;20145;-67
2022/09/15 07:13:30;;;;;;;3.17;0.80;;;;;;;19.20;100.00;95868.13;5003380;28;20056;-69
2022/09/15 07:15:57;;;;;;;3.45;1.08;;;;;;;19.11;100.00;95879.13;5005252;28;20375;-69
2022/09/15 07:18:24;;;;;;;3.92;0.93;;;;;;;19.05;100.00;95886.44;5018247;28;20294;-69
2022/09/15 07:20:51;;;;;;;6.03;1.10;;;;;;;19.09;100.00;95885.13;5019093;28;20136;-68
2022/09/15 07:23:17;;;;;;;7.95;0.90;;;;;;;19.54;100.00;95900.00;5015180;28;20282;-68
2022/09/15 07:25:43;;;;;;;2.58;1.10;;;;;;;19.51;100.00;95895.31;5030362;28;20452;-69
2022/09/15 07:28:10;;;;;;;4.78;1.20;;;;;;;19.88;100.00;95892.19;5038644;28;20109;-68
2022/09/15 07:30:37;;;;;;;9.93;1.20;;;;;;;19.90;100.00;95898.88;5041628;28;20048;-67
2022/09/15 07:33:04;;;;;;;3.67;0.88;;;;;;;20.19;100.00;95900.69;5050111;28;20041;-68
2022/09/15 07:35:29;;;;;;;4.22;0.77;;;;;;;20.21;100.00;95898.22;5051511;28;20041;-68
2022/09/15 07:37:55;;;;;;;6.43;1.30;;;;;;;20.32;100.00;95900.63;5042103;28;20121;-68
2022/09/15 07:40:20;;;;;;;4.03;0.80;;;;;;;20.16;100.00;95905.13;5039743;28;20049;-69
2022/09/15 07:42:46;;;;;;;3.38;1.45;;;;;;;19.97;100.00;95906.16;5044357;28;20071;-69
2022/09/15 07:45:11;;;;;;;3.97;0.93;;;;;;;20.29;100.00;95907.09;5035950;28;20075;-68
2022/09/15 07:47:37;;;;;;;5.75;1.17;;;;;;;19.91;100.00;95916.31;5043596;28;20047;-68
2022/09/15 07:50:06;;;;;;;4.35;1.20;;;;;;;19.85;100.00;95918.88;5025860;28;20107;-67
2022/09/15 07:52:31;;;;;;;4.03;1.20;;;;;;;19.83;100.00;95930.44;5040850;28;20053;-68
2022/09/15 07:54:57;;;;;;;3.88;1.25;;;;;;;19.65;100.00;95936.53;5044887;28;20045;-68
2022/09/15 07:57:22;;;;;;;3.78;0.98;;;;;;;19.56;100.00;95941.22;5028187;28;20228;-69
2022/09/15 07:59:48;;;;;;;3.50;1.00;;;;;;;19.40;100.00;95931.00;5021927;28;20585;-68
2022/09/15 08:02:18;;;;;;;5.70;1.50;;;;;;;19.21;100.00;95944.66;5016135;28;20037;-68
2022/09/15 08:04:44;;;;;;;2.97;1.10;;;;;;;19.19;100.00;95943.50;5025463;28;20045;-70
2022/09/15 08:07:10;;;;;;;2.53;0.90;;;;;;;19.09;100.00;95942.63;5038414;28;20398;-68
2022/09/15 08:09:36;;;;;;;3.00;1.10;;;;;;;19.17;100.00;95943.94;5030723;28;20049;-68
2022/09/15 08:12:03;;;;;;;3.10;0.70;;;;;;;19.02;100.00;95945.59;5032993;28;20516;-67
2022/09/15 08:14:30;;;;;;;4.72;0.80;;;;;;;18.91;100.00;95954.22;5041885;28;20047;-68
2022/09/15 08:16:59;;;;;;;4.25;0.88;;;;;;;19.14;100.00;95953.19;5036287;28;20056;-69
2022/09/15 08:19:26;;;;;;;2.08;1.15;;;;;;;18.99;100.00;95949.25;5011644;28;20050;-68
2022/09/15 08:21:51;;;;;;;4.90;1.00;;;;;;;18.89;100.00;95948.34;5022560;28;20045;-67
2022/09/15 08:24:17;;;;;;;1.23;0.90;;;;;;;18.91;100.00;95957.78;5016680;28;20132;-68
2022/09/15 08:26:42;;;;;;;2.92;1.10;;;;;;;18.87;100.00;95961.88;5022998;28;20455;-68
2022/09/15 08:29:08;;;;;;;2.33;1.10;;;;;;;18.72;100.00;95965.00;5016265;28;20045;-67
2022/09/15 08:31:34;;;;;;;4.25;1.10;;;;;;;18.75;100.00;95965.38;5003771;28;20034;-67
2022/09/15 08:34:02;;;;;;;8.13;1.35;;;;;;;18.74;100.00;95967.34;5022578;28;20042;-68
2022/09/15 08:36:28;;;;;;;2.13;1.00;;;;;;;18.70;100.00;95955.56;5022550;28;20504;-68
2022/09/15 08:38:54;;;;;;;3.13;1.02;;;;;;;18.63;100.00;95962.09;5018885;28;20144;-68
2022/09/15 08:41:44;;;;;;;2.47;0.95;;;;;;;18.57;100.00;95960.31;5025784;28;20449;-69
2022/09/15 08:44:30;;;;;;;2.53;0.82;;;;;;;18.56;100.00;95958.75;5015893;28;20069;-68
2022/09/15 08:47:12;;;;;;;5.38;1.10;;;;;;;18.78;100.00;95956.16;5017979;28;20490;-68
2022/09/15 08:50:06;;;;;;;4.10;1.00;;;;;;;18.78;100.00;95954.19;5015089;28;20045;-68
2022/09/15 08:52:44;;;;;;;3.50;0.90;;;;;;;18.67;100.00;95956.44;5009845;28;20038;-67
2022/09/15 08:55:52;;;;;;;4.82;0.98;;;;;;;18.73;100.00;95963.03;5002517;28;20037;-68
2022/09/15 08:58:30;;;;;;;2.15;1.00;;;;;;;18.80;100.00;95956.47;5008222;28;20037;-69
2022/09/15 09:01:30;;;;;;;4.40;1.25;;;;;;;18.91;100.00;95960.56;5019789;28;20171;-70
2022/09/15 09:04:19;;;;;;;2.95;1.35;;;;;;;18.82;100.00;95970.75;5015814;28;20042;-68
2022/09/15 09:07:10;;;;;;;4.18;0.98;;;;;;;18.84;100.00;95966.31;5025087;28;20081;-68
2022/09/15 09:09:47;;;;;;;5.82;1.60;;;;;;;18.72;100.00;95967.78;5017727;28;20575;-65
2022/09/15 09:12:31;;;;;;;6.40;1.25;;;;;;;18.70;100.00;95972.97;5012016;28;20048;-68
2022/09/15 09:15:10;;;;;;;4.47;1.95;;;;;;;18.83;100.00;95967.50;5013625;28;20048;-68
2022/09/15 09:18:14;;;;;;;10.88;4.57;;;;;;;19.05;100.00;95966.91;5018308;28;20046;-65
2022/09/15 09:21:04;;;;;;;1.92;1.10;;;;;;;18.85;100.00;95967.06;4977765;28;20081;-69
2022/09/15 09:23:33;;;;;;;12.57;6.45;;;;;;;18.87;100.00;95962.66;5013280;28;20127;-68
2022/09/15 09:26:00;;;;;;;1.77;1.00;;;;;;;18.88;100.00;95971.75;5012854;28;20048;-68
2022/09/15 09:28:51;;;;;;;5.60;1.30;;;;;;;18.71;100.00;95969.00;5012588;28;20056;-68
2022/09/15 09:31:21;;;;;;;3.35;1.05;;;;;;;18.79;100.00;95958.50;5015781;28;21147;-68
2022/09/15 09:33:53;;;;;;;1.52;1.08;;;;;;;18.62;100.00;95956.97;5021618;28;20142;-67
2022/09/15 09:36:18;;;;;;;2.22;1.00;;;;;;;18.49;100.00;95956.94;5008219;28;20048;-68
2022/09/15 09:38:45;;;;;;;2.50;1.05;;;;;;;18.47;100.00;95948.28;5015782;28;20049;-68
2022/09/15 09:41:17;;;;;;;5.20;1.33;;;;;;;18.46;100.00;95955.06;5001518;28;20129;-68
2022/09/15 09:43:45;;;;;;;3.53;1.00;;;;;;;18.14;100.00;95948.34;5009715;28;20779;-68
2022/09/15 09:46:15;;;;;;;4.05;1.00;;;;;;;18.33;100.00;95941.13;5012953;28;20037;-68
2022/09/15 09:48:46;;;;;;;3.05;1.33;;;;;;;18.39;100.00;95949.69;5016563;28;20411;-68
2022/09/15 09:51:33;;;;;;;5.25;1.40;;;;;;;18.30;100.00;95953.84;5016369;28;20388;-69
2022/09/15 09:54:05;;;;;;;4.88;1.45;;;;;;;18.37;100.00;95941.81;5002000;28;20038;-68
2022/09/15 09:56:30;;;;;;;2.53;1.05;;;;;;;18.33;100.00;95955.00;5009117;28;20133;-68
2022/09/15 09:58:55;;;;;;;5.05;1.23;;;;;;;18.37;100.00;95947.34;5024221;28;20199;-68
2022/09/15 10:01:24;;;;;;;2.67;1.20;;;;;;;18.33;100.00;95950.22;5006463;28;20049;-68
2022/09/15 10:04:11;;;;;;;3.47;1.30;;;;;;;17.78;100.00;95947.19;5007565;28;20057;-68
2022/09/15 10:06:38;;;;;;;7.90;1.92;;;;;;;17.47;100.00;95941.22;5006158;28;20120;-68
2022/09/15 10:09:18;;;;;;;2.92;1.17;;;;;;;17.09;100.00;95927.03;5015468;28;20080;-65
2022/09/15 10:11:50;;;;;;;4.90;1.65;;;;;;;16.97;100.00;95923.72;5012709;28;20045;-65
2022/09/15 10:14:24;;;;;;;2.33;1.10;;;;;;;16.85;100.00;95923.59;5003641;28;20407;-66
2022/09/15 10:17:18;;;;;;;4.18;1.13;;;;;;;16.97;100.00;95929.25;5011261;28;20041;-67
2022/09/15 10:19:54;;;;;;;2.58;1.17;;;;;;;17.00;100.00;95931.16;5013280;28;20100;-67
2022/09/15 10:22:31;;;;;;;2.95;1.20;;;;;;;17.04;100.00;95928.31;4999084;28;20042;-68
2022/09/15 10:24:59;;;;;;;2.35;1.10;;;;;;;17.01;100.00;95934.69;5019967;28;20108;-68
2022/09/15 10:27:34;;;;;;;4.47;1.35;;;;;;;17.17;100.00;95931.97;5012603;28;20114;-67
2022/09/15 10:30:12;;;;;;;2.92;1.30;;;;;;;17.14;100.00;95932.03;5020739;28;20045;-67
2022/09/15 10:32:38;;;;;;;4.55;1.75;;;;;;;17.24;100.00;95933.81;5018568;28;20076;-67
2022/09/15 10:35:10;;;;;;;4.60;1.75;;;;;;;17.47;100.00;95930.13;5020922;28;20076;-66
2022/09/15 10:37:47;;;;;;;3.33;1.80;;;;;;;17.60;100.00;95929.47;5021833;28;20048;-68
2022/09/15 10:40:21;;;;;;;6.00;2.00;;;;;;;17.53;100.00;95931.16;5016940;28;20153;-67
2022/09/15 10:42:50;;;;;;;3.08;1.70;;;;;;;17.47;100.00;95932.13;5023754;28;20037;-69
2022/09/15 10:45:35;;;;;;;3.58;1.83;;;;;;;17.68;100.00;95925.28;5024525;28;20491;-69
2022/09/15 10:48:06;;;;;;;3.90;1.60;;;;;;;17.72;100.00;95924.00;5025922;28;20044;-67
2022/09/15 10:50:54;;;;;;;7.03;1.50;;;;;;;17.77;100.00;95917.16;5038869;28;20050;-68
2022/09/15 10:53:57;;;;;;;3.70;1.20;;;;;;;18.01;100.00;95926.09;5021566;28;20072;-68
2022/09/15 10:56:33;;;;;;;2.55;1.23;;;;;;;17.98;100.00;95923.41;5017721;28;20612;-68
2022/09/15 10:59:42;;;;;;;2.65;1.48;;;;;;;17.91;100.00;95922.38;5022395;28;20054;-69
2022/09/15 11:02:10;;;;;;;4.53;1.50;;;;;;;18.30;100.00;95925.38;5024319;28;20042;-66
2022/09/15 11:04:44;;;;;;;3.17;1.08;;;;;;;18.40;100.00;95931.81;5026867;28;20120;-68
2022/09/15 11:07:25;;;;;;;4.22;1.55;;;;;;;18.31;100.00;95922.16;5028492;28;20385;-68
2022/09/15 11:10:09;;;;;;;4.30;1.65;;;;;;;18.62;100.00;95934.78;5013431;28;20076;-68
2022/09/15 11:13:14;;;;;;;3.58;1.30;;;;;;;18.57;100.00;95918.72;5010480;28;20053;-68
2022/09/15 11:15:53;;;;;;;4.47;1.30;;;;;;;18.99;100.00;95916.72;5025039;28;20045;-69
2022/09/15 11:18:41;;;;;;;2.97;1.13;;;;;;;19.03;100.00;95913.84;5030000;28;20045;-66
2022/09/15 11:21:17;;;;;;;5.00;1.48;;;;;;;19.20;100.00;95917.31;5020378;28;20851;-67
2022/09/15 11:23:49;;;;;;;4.55;1.40;;;;;;;19.31;100.00;95925.31;5025875;28;20099;-68
2022/09/15 11:26:20;;;;;;;3.53;1.40;;;;;;;19.38;100.00;95922.34;5026466;28;20041;-67
2022/09/15 11:28:57;;;;;;;3.53;1.30;;;;;;;19.35;100.00;95917.66;5020686;28;20075;-68
2022/09/15 11:31:51;;;;;;;4.53;1.38;;;;;;;19.39;100.00;95918.31;5019175;28;20856;-68
2022/09/15 11:34:27;;;;;;;4.60;1.35;;;;;;;19.36;100.00;95916.44;5016834;28;20394;-67
2022/09/15 11:37:11;;;;;;;2.45;1.00;;;;;;;19.62;100.00;95919.97;5031220;28;20135;-67
2022/09/15 11:39:45;;;;;;;2.03;1.00;;;;;;;19.91;100.00;95921.88;5024655;28;20562;-68
2022/09/15 11:42:23;;;;;;;1.50;0.85;;;;;;;19.60;100.00;95925.97;5018934;28;20545;-67